Terminal Aerodrome Forecast
Issued by NWS

Home | Current Version | Previous Version | Text Only | Print | Product List | Glossary On
Versions: 1 2 3 4 5 6 7 8 9 10 11 12 13 14 15 16 17 18 19 20 21 22
000
FTUS41 KCAR 181720
TAFPQI
TAF
KPQI 181720Z 1818/1918 33014G20KT 2SM -SN BR SCT015 BKN025 OVC060
     FM182200 31014G23KT 6SM -SHSN OVC025
     FM190400 30012G19KT P6SM VCSH OVC035
     FM191200 30010KT P6SM SCT025 OVC040
      AMD LTD TO CLD VIS AND WIND=

USA.gov is the U.S. government's official web portal to all federal, state and local government web resources and services.